Fort Hunter, New York
Current Conditions -  °F | °C
As of 9:35 AM on Wednesday 22 Oct 2014 (Local Time) from KNY0 Reporting Station
Overcast Overcast  
Wind Chill:   Ceiling: 1700
Heat Index:   Visibility: 10mi
Dew Point:   Wind: 12mph
Humidity: 82%   Direction: 40°NE
Pressure: 30.1"   Gusts: 21mph
Location:  42.94°N, 74.28°W
Report Text: KNY0 221335Z AUTO 04010G18KT 10SM OVC017 09/06 A3010 RMK AO2 T00900060
Loading
Personal Weather Stations






























Interactive Weather Map
Tropical Storm Tracking
New forecast layout! Learn more

10-Day Weather Forecast

Advertisements
Track Severe Weather on mobile